Time;durP1;ratioP1;P1;durP2;ratioP2;P2;SDS_P1;SDS_P2;PMS_P1;PMS_P2;Temp;Humidity;BMP_temperature;BMP_pressure;BME280_temperature;BME280_humidity;BME280_pressure;Samples;Min_cycle;Max_cycle;Signal;HPM_P1;HPM_P2
2022/06/02 00:00:05;;;;;;;;;1.00;1.00;;;;;17.62;38.36;101531.78;5061529;28;45455;-48
2022/06/02 00:02:39;;;;;;;;;2.00;2.00;;;;;17.53;38.33;101527.88;5056993;28;45472;-47
2022/06/02 00:05:34;;;;;;;;;2.00;2.00;;;;;17.48;38.77;101532.72;5069925;28;45430;-47
2022/06/02 00:07:59;;;;;;;;;2.00;2.00;;;;;17.47;38.58;101536.34;5043478;28;46287;-47
2022/06/02 00:10:34;;;;;;;;;1.00;1.00;;;;;17.47;38.55;101548.00;5066991;28;45385;-48
2022/06/02 00:13:23;;;;;;;;;2.00;2.00;;;;;17.42;38.93;101552.81;5042321;28;45603;-48
2022/06/02 00:16:01;;;;;;;;;2.67;2.00;;;;;17.37;38.84;101544.19;5050951;28;45375;-47
2022/06/02 00:18:59;;;;;;;;;2.00;1.67;;;;;17.34;38.75;101541.72;5061290;28;46258;-48
2022/06/02 00:21:42;;;;;;;;;2.00;2.00;;;;;17.29;39.09;101543.84;5068601;28;45762;-47
2022/06/02 00:24:13;;;;;;;;;2.00;2.00;;;;;17.22;39.24;101545.22;5060863;28;45449;-49
2022/06/02 00:27:00;;;;;;;;;3.00;3.00;;;;;17.13;39.05;101546.69;5060831;28;45343;-47
2022/06/02 00:30:00;;;;;;;;;3.00;2.33;;;;;17.05;39.65;101549.00;5040617;28;46346;-49
2022/06/02 00:32:41;;;;;;;;;1.67;1.67;;;;;17.00;39.68;101563.63;5042985;28;45343;-49
2022/06/02 00:35:40;;;;;;;;;2.33;2.00;;;;;16.97;39.98;101563.84;5041026;28;45339;-48
2022/06/02 00:38:24;;;;;;;;;3.33;2.33;;;;;16.95;39.80;101560.38;5060722;28;45601;-48
2022/06/02 00:40:51;;;;;;;;;2.33;2.33;;;;;16.89;39.82;101562.56;5064175;28;45590;-48
2022/06/02 00:43:28;;;;;;;;;4.00;3.00;;;;;16.81;39.96;101558.53;5059202;28;45308;-48
2022/06/02 00:46:15;;;;;;;;;3.33;3.33;;;;;16.77;40.16;101574.97;5057629;28;45288;-49
2022/06/02 00:49:08;;;;;;;;;3.33;3.00;;;;;16.73;40.29;101576.97;5042558;28;45495;-49
2022/06/02 00:51:41;;;;;;;;;3.00;3.00;;;;;16.67;40.81;101572.88;5062687;28;45561;-51
2022/06/02 00:57:37;;;;;;;;;4.00;2.00;;;;;16.62;41.09;101558.00;5044028;28;45429;-49
2022/06/02 01:00:12;;;;;;;;;3.00;3.00;;;;;16.62;41.05;101563.38;5054595;28;45414;-50
2022/06/02 01:02:47;;;;;;;;;3.00;3.00;;;;;16.60;41.25;101568.84;5063280;28;46207;-48
2022/06/02 01:05:15;;;;;;;;;3.00;3.00;;;;;16.64;41.25;101566.81;5058652;28;45411;-51
2022/06/02 01:08:10;;;;;;;;;3.00;3.00;;;;;16.68;40.95;101562.97;5057161;28;45302;-50
2022/06/02 01:10:57;;;;;;;;;4.00;3.00;;;;;16.66;41.43;101567.56;5044991;28;45395;-51
2022/06/02 01:13:31;;;;;;;;;3.00;3.00;;;;;16.60;41.07;101560.78;5066845;28;45304;-49
2022/06/02 01:16:26;;;;;;;;;5.00;4.00;;;;;16.56;41.70;101570.00;5059531;28;45418;-48
2022/06/02 01:19:00;;;;;;;;;4.67;3.00;;;;;16.53;41.56;101546.88;5025409;28;45433;-49
2022/06/02 01:21:53;;;;;;;;;6.00;4.67;;;;;16.50;41.66;101557.84;5066054;28;45570;-49
2022/06/02 01:24:44;;;;;;;;;4.00;4.00;;;;;16.50;41.28;101552.47;5060679;28;45367;-48
2022/06/02 01:27:10;;;;;;;;;3.00;2.67;;;;;16.46;41.80;101544.69;5053896;28;45395;-50
2022/06/02 01:30:05;;;;;;;;;5.00;4.67;;;;;16.41;42.13;101547.63;5045748;28;45348;-52
2022/06/02 01:32:44;;;;;;;;;5.00;4.33;;;;;16.29;41.44;101559.16;5042693;28;45561;-49
2022/06/02 01:35:22;;;;;;;;;4.00;4.00;;;;;16.24;41.76;101543.31;5059430;28;46671;-50
2022/06/02 01:37:50;;;;;;;;;4.00;4.00;;;;;16.20;42.24;101558.78;5040519;28;45439;-51
2022/06/02 01:40:21;;;;;;;;;5.33;4.67;;;;;16.14;42.09;101544.84;5040519;28;45330;-49
2022/06/02 01:43:08;;;;;;;;;5.00;4.00;;;;;16.13;42.70;101549.38;5060023;28;45371;-49
2022/06/02 01:45:49;;;;;;;;;5.00;5.00;;;;;16.10;42.44;101556.75;5037295;28;46051;-51
2022/06/02 01:48:30;;;;;;;;;5.67;4.67;;;;;16.04;42.53;101561.53;5046133;28;45365;-50
2022/06/02 01:51:11;;;;;;;;;3.00;3.00;;;;;16.02;42.09;101576.00;5033199;28;45308;-49
2022/06/02 01:53:52;;;;;;;;;4.67;4.33;;;;;15.97;42.69;101575.41;5050140;28;45281;-52
2022/06/02 01:56:37;;;;;;;;;4.67;4.00;;;;;15.94;43.17;101579.13;5049016;28;45431;-48
2022/06/02 01:59:20;;;;;;;;;5.00;5.00;;;;;15.86;42.98;101574.22;5049014;28;45511;-49
2022/06/02 02:01:50;;;;;;;;;6.67;6.00;;;;;15.77;43.21;101573.91;5058952;28;45362;-48
2022/06/02 02:04:28;;;;;;;;;5.00;4.67;;;;;15.74;43.16;101579.47;5043771;28;45367;-49
2022/06/02 02:07:14;;;;;;;;;8.00;5.00;;;;;15.74;43.62;101571.41;5061262;28;46245;-51
2022/06/02 02:09:55;;;;;;;;;6.00;5.33;;;;;15.76;43.25;101564.13;5059510;28;45370;-48
2022/06/02 02:12:43;;;;;;;;;5.33;4.00;;;;;15.78;43.32;101565.75;5073947;28;45398;-50
2022/06/02 02:15:17;;;;;;;;;4.00;4.00;;;;;15.79;43.11;101567.50;5061556;28;45349;-48
2022/06/02 02:18:04;;;;;;;;;5.67;4.67;;;;;15.79;43.56;101570.19;5060643;28;46505;-47
2022/06/02 02:20:40;;;;;;;;;6.67;6.67;;;;;15.70;43.50;101566.22;5062313;28;45669;-48
2022/06/02 02:23:19;;;;;;;;;5.00;5.00;;;;;15.68;43.95;101570.81;5063198;28;45407;-49
2022/06/02 02:25:50;;;;;;;;;6.33;5.33;;;;;15.65;43.65;101560.25;5042796;28;45474;-48
2022/06/02 02:28:54;;;;;;;;;7.00;5.00;;;;;15.59;43.77;101557.97;5061359;28;45365;-47
2022/06/02 02:31:33;;;;;;;;;4.00;4.00;;;;;15.51;43.99;101566.47;5029805;28;45508;-48
2022/06/02 02:34:05;;;;;;;;;7.33;7.00;;;;;15.48;44.24;101568.44;5041345;28;45477;-48
2022/06/02 02:36:52;;;;;;;;;5.00;5.00;;;;;15.46;43.72;101570.34;5060292;28;45521;-48
2022/06/02 02:39:26;;;;;;;;;4.33;4.33;;;;;15.44;43.93;101564.22;5060306;28;46076;-49
2022/06/02 02:42:21;;;;;;;;;6.00;6.00;;;;;15.42;44.17;101568.81;5044117;28;46204;-49
2022/06/02 02:45:06;;;;;;;;;4.00;4.00;;;;;15.44;44.12;101564.22;5035145;28;45434;-48
2022/06/02 02:47:44;;;;;;;;;5.67;5.67;;;;;15.45;43.97;101564.13;5060068;28;45309;-49
2022/06/02 02:50:30;;;;;;;;;5.00;4.00;;;;;15.46;44.47;101571.22;5056214;28;46653;-50
2022/06/02 02:53:06;;;;;;;;;4.00;4.00;;;;;15.46;44.33;101564.97;5050972;28;45693;-48
2022/06/02 02:55:41;;;;;;;;;8.00;6.00;;;;;15.39;44.39;101572.53;5043192;28;45333;-49
2022/06/02 02:58:32;;;;;;;;;7.00;6.33;;;;;15.33;44.66;101564.81;5059037;28;45787;-48
2022/06/02 03:01:13;;;;;;;;;4.67;4.67;;;;;15.32;44.71;101572.00;5065643;28;46080;-48
2022/06/02 03:03:47;;;;;;;;;6.00;6.00;;;;;15.35;44.73;101574.50;5060668;28;45487;-49
2022/06/02 03:06:23;;;;;;;;;7.33;4.33;;;;;15.35;44.47;101560.25;5078479;27;45643;-48
2022/06/02 03:09:15;;;;;;;;;6.33;6.00;;;;;15.33;44.38;101565.72;5050086;28;45564;-50
2022/06/02 03:11:53;;;;;;;;;7.00;7.00;;;;;15.34;44.61;101559.41;5048116;28;45434;-49
2022/06/02 03:14:36;;;;;;;;;7.67;5.67;;;;;15.33;44.70;101562.16;5059446;28;45410;-49
2022/06/02 03:17:05;;;;;;;;;5.67;5.67;;;;;15.28;44.71;101553.50;5065442;28;45459;-49
2022/06/02 03:19:48;;;;;;;;;5.00;5.00;;;;;15.27;44.79;101559.84;5058419;28;45406;-49
2022/06/02 03:22:29;;;;;;;;;5.67;5.00;;;;;15.28;44.52;101550.84;5032466;28;46737;-50
2022/06/02 03:25:17;;;;;;;;;9.33;7.00;;;;;15.30;45.01;101549.78;5060818;28;45313;-48
2022/06/02 03:28:19;;;;;;;;;5.33;5.33;;;;;15.29;44.37;101549.88;5042015;28;45423;-49
2022/06/02 03:31:11;;;;;;;;;7.00;5.00;;;;;15.21;44.77;101564.59;5054407;28;45488;-49
2022/06/02 03:34:14;;;;;;;;;5.33;5.00;;;;;15.18;44.72;101569.28;5044761;28;45532;-51
2022/06/02 03:36:54;;;;;;;;;5.00;5.00;;;;;15.16;44.80;101568.47;5069296;28;45478;-49
2022/06/02 03:39:33;;;;;;;;;5.00;5.00;;;;;15.18;44.71;101567.44;5068875;28;45418;-50
2022/06/02 03:42:08;;;;;;;;;7.00;6.67;;;;;15.15;44.84;101575.66;5058406;28;45543;-52
2022/06/02 03:44:51;;;;;;;;;6.67;5.00;;;;;15.18;44.85;101575.47;5041312;28;46281;-49
2022/06/02 03:47:47;;;;;;;;;7.00;7.00;;;;;15.19;44.79;101587.94;5041197;28;46284;-50
2022/06/02 03:50:49;;;;;;;;;7.00;7.00;;;;;15.21;45.12;101585.16;5065732;28;45726;-49
2022/06/02 03:53:39;;;;;;;;;7.67;5.33;;;;;15.22;44.74;101585.06;5069279;28;45302;-49
2022/06/02 03:56:10;;;;;;;;;6.33;5.67;;;;;15.23;44.88;101577.91;5060987;28;45489;-49
2022/06/02 03:59:06;;;;;;;;;9.00;5.00;;;;;15.23;44.94;101575.22;5066174;28;45255;-52
2022/06/02 04:01:43;;;;;;;;;6.00;5.67;;;;;15.24;45.14;101573.41;5039699;28;45585;-52
2022/06/02 04:04:27;;;;;;;;;5.33;5.33;;;;;15.20;45.10;101562.88;5057270;28;45446;-52
2022/06/02 04:07:22;;;;;;;;;7.33;7.33;;;;;15.15;45.12;101559.59;5068397;28;46948;-51
2022/06/02 04:10:11;;;;;;;;;6.00;6.00;;;;;15.09;45.08;101562.63;5051857;28;45572;-50
2022/06/02 04:16:04;;;;;;;;;6.67;6.00;;;;;15.06;45.29;101584.22;5066817;28;45544;-49
2022/06/02 04:18:59;;;;;;;;;6.00;6.00;;;;;15.08;45.57;101585.00;5062795;28;46377;-52
2022/06/02 04:21:47;;;;;;;;;6.67;6.33;;;;;15.12;44.99;101578.53;5061915;28;45450;-53
2022/06/02 04:24:49;;;;;;;;;7.33;6.00;;;;;15.14;45.13;101576.63;5058420;28;45321;-49
2022/06/02 04:27:17;;;;;;;;;8.33;8.33;;;;;15.13;45.40;101584.75;5009021;28;45434;-52
2022/06/02 04:29:43;;;;;;;;;9.67;9.67;;;;;15.13;44.88;101580.25;5046304;28;46460;-49
2022/06/02 04:32:26;;;;;;;;;8.00;7.33;;;;;15.18;44.94;101588.03;5058143;28;45337;-48
2022/06/02 04:35:19;;;;;;;;;7.00;7.00;;;;;15.21;44.96;101591.41;5071114;28;45273;-49
2022/06/02 04:38:09;;;;;;;;;6.33;6.00;;;;;15.25;45.16;101591.22;5049434;28;45422;-50
2022/06/02 04:40:46;;;;;;;;;9.00;7.00;;;;;15.28;45.00;101599.97;5052109;28;45384;-49
2022/06/02 04:43:21;;;;;;;;;7.67;7.67;;;;;15.28;45.36;101602.63;5055961;28;45280;-49
2022/06/02 04:45:52;;;;;;;;;8.00;8.00;;;;;15.29;44.90;101604.38;5046582;28;45323;-51
2022/06/02 04:48:28;;;;;;;;;1.00;0.67;;;;;15.30;44.69;101595.34;5057423;28;45246;-50
2022/06/02 04:50:58;;;;;;;;;6.67;6.00;;;;;15.20;44.79;101592.34;5062562;28;47690;-49
2022/06/02 04:53:34;;;;;;;;;7.00;7.00;;;;;15.15;45.33;101605.16;5057076;28;45401;-48
2022/06/02 04:56:20;;;;;;;;;7.00;6.67;;;;;15.14;45.30;101606.09;5063038;28;45259;-50
2022/06/02 04:58:48;;;;;;;;;9.67;7.67;;;;;15.14;45.41;101599.88;5046809;28;45326;-50
2022/06/02 05:01:34;;;;;;;;;5.00;5.00;;;;;15.15;45.17;101601.63;5049671;28;46602;-49
2022/06/02 05:04:24;;;;;;;;;6.00;6.00;;;;;15.19;45.30;101604.00;5042887;28;45358;-49
2022/06/02 05:06:53;;;;;;;;;7.00;7.00;;;;;15.18;45.44;101599.59;5064788;28;46337;-49
2022/06/02 05:09:26;;;;;;;;;7.33;7.33;;;;;15.15;45.08;101596.25;5029170;28;45632;-49
2022/06/02 05:11:51;;;;;;;;;7.33;7.33;;;;;15.12;45.21;101591.94;5050809;28;45497;-50
2022/06/02 05:14:31;;;;;;;;;9.67;9.00;;;;;15.13;45.45;101595.47;5063941;28;45474;-48
2022/06/02 05:17:08;;;;;;;;;8.00;8.00;;;;;15.11;45.60;101600.03;5057498;28;45407;-50
2022/06/02 05:20:04;;;;;;;;;9.33;7.67;;;;;15.09;45.43;101596.59;5041843;28;45748;-49
2022/06/02 05:22:54;;;;;;;;;8.67;7.00;;;;;15.12;45.59;101604.44;5045520;28;46426;-52
2022/06/02 05:25:44;;;;;;;;;6.33;6.33;;;;;15.14;45.55;101610.59;5064182;28;45329;-49
2022/06/02 05:28:50;;;;;;;;;6.00;6.00;;;;;15.19;45.73;101603.16;5063197;28;45217;-51
2022/06/02 05:31:20;;;;;;;;;7.00;7.00;;;;;15.20;45.69;101591.47;5044872;28;45302;-49
2022/06/02 05:34:19;;;;;;;;;7.33;7.33;;;;;15.21;45.89;101591.41;5048414;28;45362;-49
2022/06/02 05:36:50;;;;;;;;;7.33;7.00;;;;;15.25;45.45;101594.75;5049829;28;45189;-50
2022/06/02 05:39:51;;;;;;;;;7.00;7.00;;;;;15.23;45.72;101599.34;5064449;28;45494;-52
2022/06/02 05:42:43;;;;;;;;;6.00;6.00;;;;;15.22;45.67;101595.78;5044512;28;45655;-49
2022/06/02 05:45:27;;;;;;;;;8.00;7.00;;;;;15.26;45.53;101604.53;5065919;28;46156;-49
2022/06/02 05:48:09;;;;;;;;;9.33;9.33;;;;;15.28;45.89;101601.75;5064872;28;45352;-52
2022/06/02 05:50:38;;;;;;;;;13.00;7.67;;;;;15.30;45.88;101600.72;5050634;28;45402;-49
2022/06/02 05:53:41;;;;;;;;;11.67;10.00;;;;;15.35;46.08;101597.78;5050136;28;45629;-50
2022/06/02 05:56:29;;;;;;;;;8.33;7.00;;;;;15.34;45.86;101604.09;5061203;28;45432;-50
2022/06/02 05:59:23;;;;;;;;;8.00;8.00;;;;;15.36;45.88;101605.72;5055974;28;45278;-49
2022/06/02 06:02:36;;;;;;;;;7.67;7.67;;;;;15.39;45.62;101593.97;5040939;28;45478;-49
2022/06/02 06:05:23;;;;;;;;;10.33;7.33;;;;;15.44;45.67;101601.75;5050380;28;45289;-51
2022/06/02 06:08:15;;;;;;;;;13.00;10.00;;;;;15.42;45.80;101607.19;5059749;28;47318;-50
2022/06/02 06:10:48;;;;;;;;;10.00;8.33;;;;;15.44;45.89;101607.13;5046341;28;45503;-49
2022/06/02 06:13:29;;;;;;;;;8.00;8.00;;;;;15.47;46.09;101606.94;5072951;28;45361;-51
2022/06/02 06:16:30;;;;;;;;;10.33;8.33;;;;;15.53;45.50;101615.47;5063106;28;45465;-50
2022/06/02 06:19:25;;;;;;;;;11.00;10.00;;;;;15.59;46.06;101619.63;5052084;28;46920;-51
2022/06/02 06:22:18;;;;;;;;;12.00;10.33;;;;;15.62;45.46;101611.41;5049030;28;45590;-50
2022/06/02 06:25:21;;;;;;;;;11.33;9.00;;;;;15.64;45.92;101608.63;5062559;28;45435;-50
2022/06/02 06:28:06;;;;;;;;;10.00;8.33;;;;;15.70;45.92;101601.06;5061200;28;45419;-50
2022/06/02 06:30:57;;;;;;;;;10.67;9.33;;;;;15.78;45.46;101599.78;5065468;28;46568;-54
2022/06/02 06:33:28;;;;;;;;;10.00;9.00;;;;;15.79;45.64;101593.47;5044529;28;45485;-48
2022/06/02 06:36:13;;;;;;;;;12.00;11.33;;;;;15.81;45.49;101599.63;5058483;28;45381;-48
2022/06/02 06:39:02;;;;;;;;;8.33;8.33;;;;;15.87;45.69;101599.25;5036632;28;45513;-50
2022/06/02 06:41:52;;;;;;;;;9.33;9.33;;;;;16.00;45.48;101602.91;5066621;28;46984;-48
2022/06/02 06:44:37;;;;;;;;;13.00;11.00;;;;;16.13;45.47;101602.19;5055383;28;45540;-48
2022/06/02 06:47:19;;;;;;;;;11.00;11.00;;;;;16.28;45.70;101600.38;5040198;28;45410;-48
2022/06/02 06:49:56;;;;;;;;;9.67;9.33;;;;;16.45;45.46;101602.91;5041639;28;45537;-49
2022/06/02 06:52:46;;;;;;;;;7.67;7.33;;;;;16.59;44.98;101595.78;5060334;28;47152;-51
2022/06/02 06:55:36;;;;;;;;;11.67;10.67;;;;;16.75;44.85;101599.25;5042385;28;45521;-48
2022/06/02 06:58:28;;;;;;;;;10.00;10.00;;;;;16.93;44.52;101599.91;5054201;28;45403;-48
2022/06/02 07:00:56;;;;;;;;;9.00;9.00;;;;;17.12;44.64;101598.72;5059712;28;45703;-47
2022/06/02 07:03:33;;;;;;;;;12.67;12.33;;;;;17.27;44.09;101608.44;5060967;28;45550;-52
2022/06/02 07:06:23;;;;;;;;;11.00;9.00;;;;;17.42;44.13;101605.75;5057643;28;45713;-47
2022/06/02 07:09:00;;;;;;;;;11.00;9.33;;;;;17.60;43.70;101609.00;5042228;28;45335;-49
2022/06/02 07:14:49;;;;;;;;;12.00;8.00;;;;;17.96;42.88;101603.00;5051978;28;45422;-51
2022/06/02 07:17:23;;;;;;;;;8.00;8.00;;;;;18.19;43.27;101604.09;5039601;28;45438;-52
2022/06/02 07:20:12;;;;;;;;;10.33;10.00;;;;;18.44;42.62;101606.91;5058004;28;45407;-52
2022/06/02 07:22:48;;;;;;;;;10.33;7.33;;;;;18.70;42.60;101606.91;5055825;28;45468;-51
2022/06/02 07:25:30;;;;;;;;;7.67;7.67;;;;;18.93;42.16;101611.50;5067134;28;45594;-53
2022/06/02 07:28:07;;;;;;;;;7.00;7.00;;;;;19.16;41.76;101614.34;5048511;28;45519;-53
2022/06/02 07:30:54;;;;;;;;;8.00;8.00;;;;;19.43;41.02;101614.13;5064058;28;45300;-53
2022/06/02 07:33:34;;;;;;;;;11.67;10.00;;;;;19.72;40.81;101613.75;5067319;28;45338;-52
2022/06/02 07:36:02;;;;;;;;;7.67;7.67;;;;;19.99;40.67;101602.72;5059149;28;46155;-53
2022/06/02 07:38:38;;;;;;;;;9.00;9.00;;;;;20.37;40.63;101608.81;5061998;28;46702;-52
2022/06/02 07:41:15;;;;;;;;;7.33;7.33;;;;;20.72;39.96;101609.72;5031014;28;45351;-52
2022/06/02 07:43:53;;;;;;;;;6.00;6.00;;;;;21.16;39.85;101597.13;5065425;27;45643;-52
2022/06/02 07:46:56;;;;;;;;;10.00;7.67;;;;;21.60;38.99;101592.56;5062040;28;46192;-52
2022/06/02 07:49:53;;;;;;;;;7.67;5.67;;;;;22.11;38.20;101599.06;5062253;28;45350;-53
2022/06/02 07:53:14;;;;;;;;;9.00;7.67;;;;;22.73;37.11;101606.38;5063589;28;45379;-52
2022/06/02 07:55:45;;;;;;;;;6.33;6.33;;;;;23.16;36.33;101609.84;5034177;28;45504;-50
2022/06/02 07:58:26;;;;;;;;;7.33;7.00;;;;;23.47;35.95;101599.72;5040928;28;46339;-50
2022/06/02 08:01:11;;;;;;;;;6.67;6.67;;;;;23.89;34.52;101587.69;5065348;28;45692;-48
2022/06/02 08:03:46;;;;;;;;;6.00;6.00;;;;;24.24;34.55;101587.06;5059164;28;45404;-48
2022/06/02 08:06:23;;;;;;;;;6.00;5.33;;;;;24.42;34.07;101591.75;5050591;28;45414;-47
2022/06/02 08:09:23;;;;;;;;;8.00;5.00;;;;;24.69;33.43;101585.53;5064249;28;46389;-48
2022/06/02 08:12:06;;;;;;;;;3.00;3.00;;;;;25.06;33.03;101581.00;5068708;28;45402;-49
2022/06/02 08:14:58;;;;;;;;;6.75;4.75;;;;;25.53;32.30;101575.38;5041357;28;45363;-50
2022/06/02 08:17:58;;;;;;;;;4.50;4.50;;;;;25.86;32.15;101574.78;5059937;28;45422;-51
2022/06/02 08:20:46;;;;;;;;;3.00;3.00;;;;;25.92;31.57;101569.56;5058506;28;46138;-47
2022/06/02 08:23:24;;;;;;;;;7.00;4.75;;;;;25.86;31.05;101575.63;5044524;28;45364;-51
2022/06/02 08:25:58;;;;;;;;;2.00;2.00;;;;;25.66;29.81;101565.97;5072986;28;45504;-49
2022/06/02 08:28:42;;;;;;;;;4.25;4.25;;;;;25.43;28.89;101564.56;5041596;28;45292;-49
2022/06/02 08:31:20;;;;;;;;;5.33;4.00;;;;;25.06;29.64;101567.41;5058234;28;45339;-49
2022/06/02 08:34:14;;;;;;;;;4.25;3.00;;;;;24.80;29.66;101569.97;5047933;28;45493;-49
2022/06/02 08:36:51;;;;;;;;;3.33;3.33;;;;;24.63;29.75;101568.88;5032516;28;45496;-52
2022/06/02 08:39:47;;;;;;;;;4.67;4.67;;;;;24.35;29.79;101564.28;5041159;28;45436;-47
2022/06/02 08:42:46;;;;;;;;;2.00;2.00;;;;;24.01;29.83;101563.97;5058262;28;46294;-49
2022/06/02 08:45:28;;;;;;;;;3.33;3.33;;;;;23.74;30.51;101557.41;5055550;28;45465;-49
2022/06/02 08:48:16;;;;;;;;;5.67;4.00;;;;;23.57;30.57;101559.00;5058879;28;45372;-48
2022/06/02 08:51:18;;;;;;;;;5.00;4.00;;;;;23.45;30.74;101558.28;5056187;28;45364;-49
2022/06/02 08:54:08;;;;;;;;;4.33;4.33;;;;;23.51;30.38;101546.84;5054804;28;45312;-49
2022/06/02 08:57:01;;;;;;;;;4.33;3.33;;;;;23.63;30.60;101547.56;5058955;28;45312;-49
2022/06/02 09:00:00;;;;;;;;;4.67;4.67;;;;;23.89;30.63;101552.38;5040801;28;45379;-49
2022/06/02 09:02:57;;;;;;;;;3.67;2.67;;;;;24.50;30.27;101555.66;5055297;28;45692;-49
2022/06/02 09:06:00;;;;;;;;;3.25;3.25;;;;;25.16;30.29;101554.59;5061174;28;46346;-53
2022/06/02 09:09:00;;;;;;;;;2.00;2.00;;;;;25.61;29.47;101546.50;5058361;28;45777;-48
2022/06/02 09:11:47;;;;;;;;;3.50;3.50;;;;;26.02;28.94;101544.94;5062092;28;45342;-47
2022/06/02 09:14:42;;;;;;;;;3.25;3.25;;;;;26.35;28.58;101539.69;5045245;28;45395;-51
2022/06/02 09:17:16;;;;;;;;;3.00;3.00;;;;;26.77;28.47;101537.16;5057390;28;45384;-48
2022/06/02 09:20:03;;;;;;;;;3.00;3.00;;;;;27.22;27.60;101542.19;5057498;28;45346;-48
2022/06/02 09:22:48;;;;;;;;;3.67;2.67;;;;;27.46;27.58;101526.88;5068947;28;45511;-47
2022/06/02 09:25:21;;;;;;;;;3.33;3.33;;;;;27.64;25.93;101528.56;5040515;28;45656;-49
2022/06/02 09:28:06;;;;;;;;;2.00;1.00;;;;;27.84;25.74;101531.81;5058075;28;47189;-50
2022/06/02 09:30:44;;;;;;;;;0.00;0.00;;;;;27.96;24.93;101532.28;5043440;28;45378;-51
2022/06/02 09:33:33;;;;;;;;;2.75;1.50;;;;;28.37;25.72;101538.53;5053507;28;45678;-51
2022/06/02 09:36:20;;;;;;;;;1.75;1.75;;;;;28.58;25.07;101539.81;5057311;28;45383;-49
2022/06/02 09:39:17;;;;;;;;;1.25;1.25;;;;;28.92;24.38;101527.69;5057978;28;45570;-50
2022/06/02 09:42:15;;;;;;;;;2.00;2.00;;;;;29.15;24.01;101533.19;5054478;28;45461;-49
2022/06/02 09:45:12;;;;;;;;;1.25;1.00;;;;;29.31;24.02;101532.22;5033770;28;45957;-51
2022/06/02 09:47:56;;;;;;;;;1.00;1.00;;;;;29.46;23.89;101526.78;5018316;28;45635;-50
2022/06/02 09:50:50;;;;;;;;;2.25;2.00;;;;;29.57;22.95;101532.88;5058872;28;46192;-50
2022/06/02 09:53:34;;;;;;;;;1.50;1.50;;;;;29.55;22.89;101535.78;5064207;28;45607;-49
2022/06/02 09:56:21;;;;;;;;;1.75;1.75;;;;;29.65;22.89;101547.34;5057805;28;45437;-49
2022/06/02 09:58:47;;;;;;;;;1.25;1.25;;;;;29.74;22.90;101555.50;5057563;28;45684;-52
2022/06/02 10:01:34;;;;;;;;;2.00;2.00;;;;;29.78;22.87;101548.63;5058288;28;46923;-52
2022/06/02 10:04:26;;;;;;;;;2.00;2.00;;;;;29.77;22.54;101546.91;5055493;28;45610;-48
2022/06/02 10:07:30;;;;;;;;;3.00;2.75;;;;;29.94;22.32;101550.38;5057772;28;45510;-47
2022/06/02 10:10:23;;;;;;;;;2.75;1.50;;;;;30.09;22.23;101540.28;4999596;28;45838;-49
2022/06/02 10:13:28;;;;;;;;;3.00;2.75;;;;;30.23;21.98;101537.72;5032771;28;46169;-48
2022/06/02 10:16:29;;;;;;;;;1.00;1.00;;;;;30.34;21.77;101537.25;5052138;28;45382;-48
2022/06/02 10:19:06;;;;;;;;;2.00;1.50;;;;;30.55;21.53;101533.75;5044207;28;45414;-51
2022/06/02 10:21:44;;;;;;;;;6.00;5.33;;;;;30.73;21.64;101526.97;5069741;28;45608;-54
2022/06/02 10:24:28;;;;;;;;;4.00;3.00;;;;;30.70;21.39;101519.97;5060378;28;46992;-49
2022/06/02 10:27:12;;;;;;;;;2.00;2.00;;;;;30.55;20.81;101517.28;5059755;28;45416;-50
2022/06/02 10:30:15;;;;;;;;;3.75;2.25;;;;;30.46;21.21;101518.41;5059490;28;45446;-49
2022/06/02 10:32:48;;;;;;;;;0.75;0.75;;;;;30.50;20.82;101511.53;5060557;28;45625;-47
2022/06/02 10:35:35;;;;;;;;;1.00;1.00;;;;;30.77;20.99;101515.44;5043511;28;46974;-51
2022/06/02 10:38:29;;;;;;;;;1.00;1.00;;;;;31.16;20.10;101513.34;5059429;28;45489;-49
2022/06/02 10:41:04;;;;;;;;;4.00;1.75;;;;;31.58;19.93;101511.59;5041570;28;45477;-51
2022/06/02 10:43:51;;;;;;;;;2.25;2.00;;;;;31.91;19.87;101512.91;5059839;28;45614;-54
2022/06/02 10:46:52;;;;;;;;;2.50;2.50;;;;;32.16;19.87;101513.25;5060142;28;46847;-53
2022/06/02 10:49:55;;;;;;;;;1.25;1.00;;;;;32.47;19.29;101512.81;5059474;28;45433;-53
2022/06/02 10:53:01;;;;;;;;;3.25;3.00;;;;;32.71;19.38;101510.59;5054732;28;45465;-50
2022/06/02 10:56:02;;;;;;;;;2.00;2.00;;;;;33.03;19.08;101505.38;5063495;28;45422;-52
2022/06/02 10:58:46;;;;;;;;;3.33;2.00;;;;;33.29;18.82;101501.00;5044432;28;46312;-52
2022/06/02 11:01:39;;;;;;;;;2.33;2.33;;;;;33.34;18.56;101489.31;5070458;28;45483;-51
2022/06/02 11:04:52;;;;;;;;;1.25;1.25;;;;;33.21;18.40;101512.19;5058861;28;45341;-49
2022/06/02 11:07:46;;;;;;;;;3.00;3.00;;;;;32.90;18.36;101497.09;5058647;28;45278;-49
2022/06/02 11:10:33;;;;;;;;;2.00;2.00;;;;;32.79;18.51;101487.56;5066572;28;45450;-51
2022/06/02 11:13:23;;;;;;;;;3.00;1.00;;;;;32.73;18.34;101494.72;5050206;28;45260;-49
2022/06/02 11:16:13;;;;;;;;;2.33;1.00;;;;;32.62;18.53;101492.53;5065259;28;45536;-52
2022/06/02 11:19:10;;;;;;;;;2.25;2.25;;;;;32.36;18.77;101488.66;5058614;28;45455;-49
2022/06/02 11:21:36;;;;;;;;;2.00;2.00;;;;;31.98;18.96;101478.03;5057330;28;47057;-51
2022/06/02 11:24:14;;;;;;;;;1.75;1.75;;;;;31.65;18.72;101474.06;5058000;28;45339;-51
2022/06/02 11:26:57;;;;;;;;;4.75;2.00;;;;;31.23;19.03;101474.94;5046833;28;45257;-48
2022/06/02 11:29:58;;;;;;;;;2.25;2.25;;;;;30.81;19.75;101472.81;5074463;28;45370;-47
2022/06/02 11:32:35;;;;;;;;;3.33;3.33;;;;;30.57;19.54;101473.19;5006199;28;46208;-47
2022/06/02 11:35:12;;;;;;;;;4.00;3.00;;;;;30.28;20.08;101475.75;5051204;28;45329;-48
2022/06/02 11:37:53;;;;;;;;;2.67;2.67;;;;;30.09;20.16;101460.75;5069970;28;45367;-47
2022/06/02 11:40:27;;;;;;;;;3.00;3.00;;;;;29.91;20.74;101463.00;5070900;28;45505;-47
2022/06/02 11:42:57;;;;;;;;;5.00;3.33;;;;;29.69;20.74;101452.75;5058710;28;45436;-50
2022/06/02 11:45:22;;;;;;;;;2.67;2.67;;;;;29.30;21.38;101448.34;5057469;28;45380;-47
2022/06/02 11:48:10;;;;;;;;;3.33;3.33;;;;;29.10;21.42;101452.59;5066502;28;45276;-48
2022/06/02 11:50:53;;;;;;;;;3.25;3.00;;;;;28.98;21.80;101443.97;5032291;28;45533;-50
2022/06/02 11:53:34;;;;;;;;;6.33;4.00;;;;;28.95;22.19;101458.03;5059686;28;45971;-49
2022/06/02 11:56:29;;;;;;;;;2.33;2.33;;;;;29.01;22.04;101455.41;5058694;28;45339;-47
2022/06/02 11:59:09;;;;;;;;;5.00;3.67;;;;;28.90;21.92;101450.34;5059545;28;45499;-51
2022/06/02 12:01:50;;;;;;;;;3.50;2.00;;;;;28.75;22.12;101453.03;5049545;28;45418;-48
2022/06/02 12:04:21;;;;;;;;;1.25;1.25;;;;;28.69;22.14;101446.41;5058062;28;46216;-52
2022/06/02 12:07:05;;;;;;;;;2.33;2.33;;;;;28.61;22.73;101443.69;5061660;28;45454;-47
2022/06/02 12:10:09;;;;;;;;;2.33;2.33;;;;;28.65;22.28;101435.97;5048867;28;45279;-48
2022/06/02 12:12:45;;;;;;;;;2.33;2.33;;;;;28.62;22.24;101430.88;5058460;28;45572;-51
2022/06/02 12:15:27;;;;;;;;;3.25;3.25;;;;;28.51;22.57;101433.00;5043562;28;46215;-51
2022/06/02 12:18:20;;;;;;;;;4.00;3.00;;;;;28.39;22.84;101431.69;5059849;28;45478;-49
2022/06/02 12:21:00;;;;;;;;;3.33;2.33;;;;;28.33;23.09;101435.13;5040885;28;46035;-48
2022/06/02 12:23:37;;;;;;;;;3.00;3.00;;;;;28.33;22.54;101414.09;5057603;28;45244;-49
2022/06/02 12:26:25;;;;;;;;;2.25;2.25;;;;;28.24;22.59;101428.88;5058496;28;46270;-50
2022/06/02 12:29:11;;;;;;;;;4.00;4.00;;;;;28.21;22.46;101421.88;5046533;28;45488;-47
2022/06/02 12:31:56;;;;;;;;;2.00;2.00;;;;;28.27;22.52;101408.50;5065462;28;45549;-50
2022/06/02 12:34:40;;;;;;;;;1.00;1.00;;;;;28.34;22.42;101415.81;5041930;28;45299;-51
2022/06/02 12:37:18;;;;;;;;;5.00;3.00;;;;;28.38;21.92;101411.69;5064234;28;46917;-51
2022/06/02 12:39:54;;;;;;;;;2.00;1.00;;;;;28.41;21.87;101401.41;5063406;28;45740;-52
2022/06/02 12:42:54;;;;;;;;;2.50;2.00;;;;;28.38;21.66;101403.47;5073666;28;45489;-47
2022/06/02 12:45:31;;;;;;;;;1.75;1.75;;;;;28.32;21.53;101403.34;5056805;28;45589;-49
2022/06/02 12:48:21;;;;;;;;;2.50;2.50;;;;;28.26;21.40;101390.41;5064722;28;46208;-48
2022/06/02 12:51:09;;;;;;;;;2.50;1.75;;;;;28.20;20.78;101387.34;5033192;28;45382;-50
2022/06/02 12:53:52;;;;;;;;;1.00;1.00;;;;;28.11;21.08;101382.94;5050399;28;45382;-50